createdAt,value
2018-05-15T00:00:42.757Z,16.88
2018-05-15T00:03:10.866Z,16.82
2018-05-15T00:05:39.880Z,16.80
2018-05-15T00:08:08.304Z,16.79
2018-05-15T00:10:36.398Z,16.83
2018-05-15T00:13:04.777Z,16.71
2018-05-15T00:15:33.785Z,16.64
2018-05-15T00:18:01.933Z,16.58
2018-05-15T00:20:30.934Z,16.70
2018-05-15T00:22:59.084Z,16.67
2018-05-15T00:25:27.189Z,16.68
2018-05-15T00:27:55.532Z,16.63
2018-05-15T00:30:23.669Z,16.57
2018-05-15T00:32:51.769Z,16.50
2018-05-15T00:35:19.898Z,16.53
2018-05-15T00:37:48.017Z,16.46
2018-05-15T00:40:16.135Z,16.30
2018-05-15T00:42:44.238Z,16.42
2018-05-15T00:45:12.368Z,16.41
2018-05-15T01:00:35.507Z,16.18
2018-05-15T01:03:03.629Z,16.31
2018-05-15T01:05:31.772Z,16.24
2018-05-15T01:07:59.888Z,16.31
2018-05-15T01:10:27.992Z,16.18
2018-05-15T01:22:43.082Z,16.19
2018-05-15T01:25:11.224Z,16.22
2018-05-15T01:27:39.364Z,16.22
2018-05-15T01:30:07.509Z,16.21
2018-05-15T01:32:35.605Z,16.31
2018-05-15T01:35:03.789Z,16.36
2018-05-15T01:37:31.935Z,16.33
2018-05-15T01:40:01.153Z,16.37
2018-05-15T01:42:29.280Z,16.34
2018-05-15T01:44:57.385Z,16.34
2018-05-15T01:47:25.497Z,16.37
2018-05-15T01:49:54.607Z,16.36
2018-05-15T01:52:22.902Z,16.42
2018-05-15T01:54:50.981Z,16.44
2018-05-15T01:57:19.838Z,16.50
2018-05-15T01:59:47.968Z,16.52
2018-05-15T02:02:16.092Z,16.50
2018-05-15T02:04:45.748Z,16.50
2018-05-15T02:07:14.640Z,16.52
2018-05-15T02:09:42.759Z,16.36
2018-05-15T02:12:10.882Z,16.46
2018-05-15T02:14:39.340Z,16.52
2018-05-15T02:17:07.456Z,16.47
2018-05-15T02:19:36.571Z,16.55
2018-05-15T02:22:04.744Z,16.57
2018-05-15T02:24:32.859Z,16.66
2018-05-15T02:27:00.966Z,16.64
2018-05-15T02:29:29.086Z,16.63
2018-05-15T02:31:57.189Z,16.60
2018-05-15T02:34:25.293Z,16.57
2018-05-15T02:36:53.429Z,16.48
2018-05-15T02:39:21.525Z,16.53
2018-05-15T02:41:49.638Z,16.62
2018-05-15T02:44:17.775Z,16.51
2018-05-15T02:46:45.869Z,16.56
2018-05-15T02:49:14.732Z,16.65
2018-05-15T02:51:42.855Z,16.62
2018-05-15T02:54:10.943Z,16.65
2018-05-15T02:56:39.057Z,16.66
2018-05-15T02:59:07.173Z,16.68
2018-05-15T03:01:35.313Z,16.64
2018-05-15T03:04:03.437Z,16.60
2018-05-15T03:06:32.381Z,16.63
2018-05-15T03:09:00.492Z,16.65
2018-05-15T03:11:28.791Z,16.60
2018-05-15T03:13:56.886Z,16.64
2018-05-15T03:16:25.025Z,16.62
2018-05-15T03:18:53.140Z,16.65
2018-05-15T03:21:27.298Z,16.68
2018-05-15T03:23:55.417Z,16.66
2018-05-15T03:26:23.542Z,16.58
2018-05-15T03:28:51.693Z,16.51
2018-05-15T03:31:19.818Z,16.53
2018-05-15T03:33:47.927Z,16.51
2018-05-15T03:36:16.478Z,16.49
2018-05-15T03:38:44.601Z,16.54
2018-05-15T03:41:13.657Z,16.51
2018-05-15T03:43:41.772Z,16.42
2018-05-15T03:46:15.756Z,16.41
2018-05-15T03:48:43.832Z,16.36
2018-05-15T03:51:11.954Z,16.50
2018-05-15T03:53:40.067Z,16.45
2018-05-15T03:56:09.062Z,16.51
2018-05-15T03:58:37.188Z,16.47
2018-05-15T04:01:18.003Z,16.52
2018-05-15T04:03:57.853Z,16.49
2018-05-15T04:06:37.976Z,16.51
2018-05-15T04:09:06.110Z,16.50
2018-05-15T04:11:34.225Z,16.49
2018-05-15T04:14:02.319Z,16.44
2018-05-15T04:16:30.431Z,16.53
2018-05-15T04:18:58.540Z,16.62
2018-05-15T04:21:26.679Z,16.59
2018-05-15T04:23:54.784Z,16.47
2018-05-15T04:26:22.943Z,16.50
2018-05-15T04:28:51.164Z,16.47
2018-05-15T04:31:19.247Z,16.47
2018-05-15T04:33:47.388Z,16.40
2018-05-15T04:36:16.049Z,16.37
2018-05-15T04:38:50.533Z,16.35
2018-05-15T04:41:18.663Z,16.30
2018-05-15T04:43:47.841Z,16.31
2018-05-15T04:46:15.809Z,16.43
2018-05-15T04:48:49.445Z,16.44
2018-05-15T05:04:17.581Z,16.24
2018-05-15T05:06:45.961Z,16.28
2018-05-15T05:09:14.061Z,16.38
2018-05-15T05:11:42.191Z,16.53
2018-05-15T05:14:10.745Z,16.62
2018-05-15T05:16:38.848Z,16.61
2018-05-15T05:19:06.983Z,16.70
2018-05-15T05:21:35.219Z,16.77
2018-05-15T05:24:03.299Z,16.81
2018-05-15T05:26:31.455Z,16.95
2018-05-15T05:28:59.572Z,16.89
2018-05-15T05:31:33.256Z,16.93
2018-05-15T05:34:01.386Z,16.98
2018-05-15T05:36:30.020Z,16.95
2018-05-15T05:38:58.130Z,17.06
2018-05-15T05:41:26.314Z,17.12
2018-05-15T05:43:54.415Z,17.14
2018-05-15T05:46:22.587Z,17.07
2018-05-15T05:48:56.143Z,17.12
2018-05-15T05:51:29.693Z,17.17
2018-05-15T05:53:57.801Z,17.19
2018-05-15T05:56:25.896Z,17.17
2018-05-15T05:58:54.018Z,17.30
2018-05-15T06:11:07.465Z,17.61
2018-05-15T06:13:35.572Z,17.52
2018-05-15T06:16:03.674Z,17.56
2018-05-15T06:18:31.798Z,17.63
2018-05-15T06:20:59.978Z,17.74
2018-05-15T06:23:28.038Z,17.83
2018-05-15T06:25:56.143Z,17.88
2018-05-15T06:28:25.208Z,17.91
2018-05-15T06:30:53.316Z,17.99
2018-05-15T06:33:21.426Z,18.04
2018-05-15T06:35:49.542Z,18.10
2018-05-15T06:38:17.652Z,18.15
2018-05-15T06:40:46.232Z,18.25
2018-05-15T06:43:14.340Z,18.37
2018-05-15T06:45:42.456Z,18.52
2018-05-15T06:48:10.562Z,18.77
2018-05-15T06:50:38.759Z,19.14
2018-05-15T06:53:06.843Z,19.55
2018-05-15T06:55:35.188Z,20.00
2018-05-15T06:58:03.312Z,20.29
2018-05-15T07:00:31.421Z,20.55
2018-05-15T07:02:59.520Z,20.64
2018-05-15T07:05:27.650Z,21.17
2018-05-15T07:07:55.789Z,21.53
2018-05-15T07:10:24.224Z,22.16
2018-05-15T07:12:52.332Z,22.03
2018-05-15T07:15:20.466Z,22.05
2018-05-15T07:17:48.564Z,22.02
2018-05-15T07:20:16.671Z,22.27
2018-05-15T07:22:44.780Z,22.78
2018-05-15T07:25:13.838Z,22.89
2018-05-15T07:27:41.965Z,22.79
2018-05-15T07:30:10.130Z,22.98
2018-05-15T07:32:38.208Z,23.04
2018-05-15T07:35:06.312Z,22.79
2018-05-15T07:37:34.454Z,22.51
2018-05-15T07:40:02.564Z,21.83
2018-05-15T07:42:31.361Z,21.69
2018-05-15T07:44:59.646Z,21.56
2018-05-15T07:47:27.766Z,21.97
2018-05-15T07:49:55.891Z,22.02
2018-05-15T07:52:24.021Z,22.17
2018-05-15T07:54:57.074Z,22.21
2018-05-15T07:57:25.232Z,22.33
2018-05-15T07:59:53.349Z,22.27
2018-05-15T08:02:21.486Z,22.12
2018-05-15T08:04:49.979Z,22.26
2018-05-15T08:07:18.094Z,22.36
2018-05-15T08:09:46.210Z,22.32
2018-05-15T08:12:14.312Z,22.50
2018-05-15T08:14:42.439Z,22.38
2018-05-15T08:17:10.546Z,22.39
2018-05-15T08:19:38.688Z,22.16
2018-05-15T08:22:06.821Z,22.20
2018-05-15T08:24:34.935Z,22.32
2018-05-15T08:27:03.045Z,22.33
2018-05-15T08:29:31.148Z,22.13
2018-05-15T08:31:59.362Z,22.20
2018-05-15T08:34:27.436Z,22.31
2018-05-15T08:36:55.555Z,22.33
2018-05-15T08:39:23.670Z,22.38
2018-05-15T08:41:51.784Z,22.43
2018-05-15T08:44:19.939Z,22.49
2018-05-15T08:46:48.043Z,22.35
2018-05-15T08:49:22.093Z,22.26
2018-05-15T08:51:50.196Z,22.27
2018-05-15T08:54:18.306Z,22.26
2018-05-15T08:56:46.431Z,22.26
2018-05-15T08:59:14.549Z,22.34
2018-05-15T09:01:42.720Z,22.30
2018-05-15T09:04:12.061Z,22.22
2018-05-15T09:06:40.168Z,22.18
2018-05-15T09:09:08.267Z,22.21
2018-05-15T09:11:36.370Z,22.33
2018-05-15T09:14:04.465Z,22.28
2018-05-15T09:16:33.299Z,22.31
2018-05-15T09:19:01.400Z,22.32
2018-05-15T09:21:29.506Z,22.39
2018-05-15T09:23:57.618Z,22.35
2018-05-15T09:26:26.024Z,22.37
2018-05-15T09:28:54.390Z,22.32
2018-05-15T09:31:22.506Z,22.34
2018-05-15T09:33:50.914Z,22.34
2018-05-15T09:36:19.088Z,22.44
2018-05-15T09:38:47.135Z,22.35
2018-05-15T09:41:15.260Z,22.35
2018-05-15T09:43:58.284Z,22.40
2018-05-15T09:46:26.367Z,22.45
2018-05-15T09:48:54.464Z,22.52
2018-05-15T09:51:22.733Z,22.45
2018-05-15T09:53:50.828Z,22.49
2018-05-15T09:56:18.928Z,22.57
2018-05-15T09:58:47.055Z,22.49
2018-05-15T10:01:15.184Z,22.50
2018-05-15T10:03:43.808Z,22.49
2018-05-15T10:06:11.914Z,22.53
2018-05-15T10:08:40.942Z,22.57
2018-05-15T10:11:09.061Z,22.67
2018-05-15T10:13:37.153Z,22.67
2018-05-15T10:16:05.276Z,22.62
2018-05-15T10:18:33.375Z,22.60
2018-05-15T10:21:01.482Z,22.65
2018-05-15T10:23:29.611Z,22.70
2018-05-15T10:25:57.704Z,22.58
2018-05-15T10:28:25.845Z,22.50
2018-05-15T10:30:53.962Z,22.43
2018-05-15T10:33:22.061Z,22.51
2018-05-15T10:35:51.056Z,22.58
2018-05-15T10:38:19.178Z,22.65
2018-05-15T10:40:47.299Z,22.77
2018-05-15T10:43:15.400Z,22.72
2018-05-15T10:45:43.823Z,22.66
2018-05-15T10:48:11.913Z,22.69
2018-05-15T10:50:40.106Z,22.75
2018-05-15T10:53:08.166Z,22.84
2018-05-15T10:55:36.262Z,22.80
2018-05-15T10:58:04.358Z,22.84
2018-05-15T11:00:32.465Z,22.90
2018-05-15T11:03:00.561Z,22.93
2018-05-15T11:05:28.669Z,22.90
2018-05-15T11:07:56.784Z,22.88
2018-05-15T11:10:25.004Z,22.82
2018-05-15T11:12:53.175Z,22.88
2018-05-15T11:15:21.265Z,22.90
2018-05-15T11:17:50.145Z,22.90
2018-05-15T11:20:30.013Z,22.82
2018-05-15T11:26:02.376Z,22.89
2018-05-15T11:28:30.803Z,22.94
2018-05-15T11:30:58.970Z,23.02
2018-05-15T11:33:27.941Z,22.92
2018-05-15T11:35:56.945Z,22.93
2018-05-15T11:38:25.040Z,22.90
2018-05-15T11:40:53.130Z,22.98
2018-05-15T11:43:21.224Z,23.07
2018-05-15T11:45:49.967Z,23.10
2018-05-15T11:48:19.193Z,23.08
2018-05-15T11:50:47.616Z,23.17
2018-05-15T11:53:15.841Z,23.10
2018-05-15T11:55:43.204Z,23.18
2018-05-15T11:58:11.403Z,23.17
2018-05-15T12:00:39.498Z,23.26
2018-05-15T12:03:07.596Z,23.30
2018-05-15T12:05:36.034Z,23.28
2018-05-15T12:08:04.209Z,23.26
2018-05-15T12:10:32.311Z,23.21
2018-05-15T12:13:00.349Z,23.24
2018-05-15T12:15:28.720Z,23.30
2018-05-15T12:17:57.061Z,23.22
2018-05-15T12:20:25.204Z,23.32
2018-05-15T12:22:53.969Z,23.33
2018-05-15T12:25:22.542Z,23.42
2018-05-15T12:27:50.649Z,23.48
2018-05-15T12:30:18.759Z,23.37
2018-05-15T12:32:46.848Z,23.39
2018-05-15T12:35:14.969Z,23.38
2018-05-15T12:37:43.083Z,23.36
2018-05-15T12:53:11.191Z,23.57
2018-05-15T12:55:39.355Z,23.65
2018-05-15T12:58:08.033Z,23.73
2018-05-15T13:00:37.198Z,23.77
2018-05-15T13:03:06.157Z,23.74
2018-05-15T13:05:34.251Z,23.68
2018-05-15T13:08:02.378Z,23.63
2018-05-15T13:10:30.474Z,23.61
2018-05-15T13:12:58.617Z,23.53
2018-05-15T13:15:26.732Z,23.58
2018-05-15T13:17:56.255Z,23.58
2018-05-15T13:20:24.368Z,23.60
2018-05-15T13:22:52.920Z,23.58
2018-05-15T13:25:21.012Z,23.77
2018-05-15T13:27:49.112Z,23.86
2018-05-15T13:30:17.235Z,23.89
2018-05-15T13:32:45.336Z,23.77
2018-05-15T13:35:13.557Z,23.71
2018-05-15T13:37:41.589Z,23.72
2018-05-15T13:40:10.010Z,23.84
2018-05-15T13:42:38.168Z,23.97
2018-05-15T13:45:06.289Z,23.90
2018-05-15T13:47:34.644Z,23.89
2018-05-15T13:50:02.738Z,23.84
2018-05-15T13:52:31.194Z,23.79
2018-05-15T13:54:59.298Z,23.82
2018-05-15T13:57:27.730Z,23.74
2018-05-15T13:59:55.892Z,23.75
2018-05-15T14:02:24.005Z,23.84
2018-05-15T14:04:52.471Z,23.82
2018-05-15T14:07:20.609Z,23.96
2018-05-15T14:09:48.709Z,23.89
2018-05-15T14:12:16.860Z,23.81
2018-05-15T14:14:44.960Z,23.74
2018-05-15T14:17:13.116Z,23.74
2018-05-15T14:19:41.225Z,23.81
2018-05-15T14:22:11.243Z,23.91
2018-05-15T14:24:39.392Z,24.06
2018-05-15T14:27:07.933Z,24.02
2018-05-15T14:29:36.049Z,24.04
2018-05-15T14:32:05.069Z,24.01
2018-05-15T14:34:33.228Z,24.08
2018-05-15T14:37:01.343Z,24.02
2018-05-15T14:39:29.545Z,23.91
2018-05-15T14:42:09.547Z,24.03
2018-05-15T14:44:38.506Z,24.10
2018-05-15T14:47:07.577Z,23.94
2018-05-15T14:49:35.668Z,23.90
2018-05-15T14:52:03.781Z,24.00
2018-05-15T15:07:31.974Z,23.98
2018-05-15T15:10:00.041Z,23.95
2018-05-15T15:12:28.171Z,24.00
2018-05-15T15:14:56.260Z,24.04
2018-05-15T15:17:25.341Z,24.18
2018-05-15T15:19:53.388Z,24.12
2018-05-15T15:22:21.485Z,24.02
2018-05-15T15:24:49.610Z,23.96
2018-05-15T15:27:17.721Z,24.03
2018-05-15T15:29:45.834Z,24.15
2018-05-15T15:32:13.925Z,24.17
2018-05-15T15:34:42.059Z,24.11
2018-05-15T15:37:10.453Z,24.10
2018-05-15T15:39:38.536Z,24.06
2018-05-15T15:42:07.292Z,24.10
2018-05-15T15:44:35.411Z,24.03
2018-05-15T15:47:03.513Z,24.06
2018-05-15T15:49:31.727Z,24.12
2018-05-15T15:51:59.852Z,24.17
2018-05-15T15:54:27.952Z,24.19
2018-05-15T15:56:56.073Z,24.19
2018-05-15T15:59:25.087Z,24.25
2018-05-15T16:01:53.197Z,24.18
2018-05-15T16:04:21.324Z,24.10
2018-05-15T16:06:49.434Z,24.19
2018-05-15T16:09:17.527Z,24.20
2018-05-15T16:11:45.667Z,24.20
2018-05-15T16:14:13.800Z,24.27
2018-05-15T16:16:41.881Z,24.24
2018-05-15T16:19:10.969Z,24.28
2018-05-15T16:21:39.069Z,24.29
2018-05-15T16:24:07.169Z,24.23
2018-05-15T16:26:35.310Z,24.19
2018-05-15T16:29:03.420Z,24.15
2018-05-15T16:31:31.513Z,24.18
2018-05-15T16:33:59.643Z,24.20
2018-05-15T16:36:27.746Z,24.21
2018-05-15T16:38:55.844Z,24.19
2018-05-15T16:41:23.973Z,24.17
2018-05-15T16:43:52.530Z,24.26
2018-05-15T16:46:20.666Z,24.23
2018-05-15T16:48:48.786Z,24.26
2018-05-15T16:51:16.886Z,24.21
2018-05-15T16:53:45.006Z,24.26
2018-05-15T16:56:13.151Z,24.06
2018-05-15T16:58:41.301Z,23.97
2018-05-15T17:01:09.361Z,23.81
2018-05-15T17:03:37.513Z,23.80
2018-05-15T17:06:05.601Z,23.91
2018-05-15T17:08:33.696Z,23.67
2018-05-15T17:11:01.833Z,23.66
2018-05-15T17:13:30.014Z,23.77
2018-05-15T17:15:58.064Z,23.74
2018-05-15T17:18:26.195Z,23.72
2018-05-15T17:20:54.305Z,23.72
2018-05-15T17:23:23.126Z,23.83
2018-05-15T17:25:51.245Z,23.86
2018-05-15T17:28:19.340Z,23.73
2018-05-15T17:30:47.662Z,23.74
2018-05-15T17:33:15.772Z,23.74
2018-05-15T17:35:43.902Z,23.73
2018-05-15T17:38:12.498Z,23.75
2018-05-15T17:40:40.630Z,23.67
2018-05-15T17:43:08.704Z,23.61
2018-05-15T17:45:36.854Z,23.57
2018-05-15T17:48:05.010Z,23.49
2018-05-15T17:50:33.142Z,23.43
2018-05-15T17:53:01.369Z,23.46
2018-05-15T17:55:29.399Z,23.45
2018-05-15T17:57:57.480Z,23.40
2018-05-15T18:00:25.612Z,23.35
2018-05-15T18:02:53.722Z,23.26
2018-05-15T18:05:21.804Z,23.32
2018-05-15T18:07:50.009Z,23.24
2018-05-15T18:10:18.132Z,23.28
2018-05-15T18:12:46.251Z,23.18
2018-05-15T18:15:14.388Z,23.12
2018-05-15T18:17:42.437Z,23.05
2018-05-15T18:20:10.941Z,22.99
2018-05-15T18:22:39.060Z,23.04
2018-05-15T18:25:07.180Z,22.98
2018-05-15T18:27:35.309Z,22.93
2018-05-15T18:30:03.433Z,22.99
2018-05-15T18:32:32.308Z,22.90
2018-05-15T18:35:00.411Z,22.79
2018-05-15T18:37:28.529Z,22.77
2018-05-15T18:39:56.621Z,22.65
2018-05-15T18:42:24.768Z,22.69
2018-05-15T18:44:52.869Z,22.55
2018-05-15T18:47:20.998Z,22.38
2018-05-15T18:49:49.080Z,22.39
2018-05-15T18:52:17.194Z,22.30
2018-05-15T19:04:31.187Z,21.98
2018-05-15T19:06:59.803Z,22.00
2018-05-15T19:09:27.935Z,21.97
2018-05-15T19:11:56.053Z,21.86
2018-05-15T19:14:24.438Z,21.87
2018-05-15T19:16:53.302Z,21.84
2018-05-15T19:19:21.547Z,21.77
2018-05-15T19:21:49.570Z,21.68
2018-05-15T19:24:18.361Z,21.54
2018-05-15T19:26:46.502Z,21.50
2018-05-15T19:29:14.863Z,21.45
2018-05-15T19:31:42.948Z,21.48
2018-05-15T19:34:16.613Z,21.38
2018-05-15T19:36:50.315Z,21.33
2018-05-15T19:39:19.344Z,21.22
2018-05-15T19:41:47.460Z,21.20
2018-05-15T19:44:15.606Z,21.13
2018-05-15T19:46:43.686Z,21.13
2018-05-15T19:49:11.914Z,21.15
2018-05-15T19:51:40.042Z,20.92
2018-05-15T19:54:08.133Z,20.89
2018-05-15T19:56:36.241Z,20.82
2018-05-15T19:59:04.356Z,20.55
2018-05-15T20:01:32.467Z,20.47
2018-05-15T20:04:00.572Z,20.42
2018-05-15T20:06:29.634Z,20.33
2018-05-15T20:08:57.775Z,20.14
2018-05-15T20:11:25.839Z,20.11
2018-05-15T20:13:54.750Z,20.15
2018-05-15T20:16:22.857Z,20.06
2018-05-15T20:18:51.532Z,20.06
2018-05-15T20:21:19.835Z,19.92
2018-05-15T20:23:47.977Z,19.69
2018-05-15T20:26:16.042Z,19.59
2018-05-15T20:28:44.631Z,19.74
2018-05-15T20:31:12.761Z,19.93
2018-05-15T20:33:40.867Z,19.90
2018-05-15T20:36:08.977Z,19.54
2018-05-15T20:38:37.444Z,19.43
2018-05-15T20:41:06.198Z,19.33
2018-05-15T20:43:35.179Z,19.29
2018-05-15T20:46:04.079Z,19.10
2018-05-15T20:48:32.182Z,19.14
2018-05-15T20:51:00.343Z,19.24
2018-05-15T20:53:28.480Z,19.07
2018-05-15T20:55:56.603Z,18.98
2018-05-15T20:58:24.692Z,18.77
2018-05-15T21:00:52.822Z,18.77
2018-05-15T21:03:20.948Z,18.59
2018-05-15T21:05:49.048Z,18.59
2018-05-15T21:08:17.150Z,18.52
2018-05-15T21:10:45.279Z,18.42
2018-05-15T21:13:14.010Z,18.53
2018-05-15T21:15:42.477Z,18.45
2018-05-15T21:18:10.573Z,17.87
2018-05-15T21:20:38.690Z,17.51
2018-05-15T21:23:06.800Z,17.60
2018-05-15T21:25:34.908Z,17.67
2018-05-15T21:28:03.025Z,17.33
2018-05-15T21:30:31.159Z,17.31
2018-05-15T21:32:59.281Z,17.48
2018-05-15T21:35:27.771Z,17.63
2018-05-15T21:37:55.909Z,17.52
2018-05-15T21:40:24.024Z,17.27
2018-05-15T21:42:52.832Z,17.19
2018-05-15T21:45:20.945Z,16.96
2018-05-15T21:47:49.782Z,16.95
2018-05-15T21:50:17.881Z,17.18
2018-05-15T21:52:46.032Z,17.22
2018-05-15T21:55:14.903Z,17.11
2018-05-15T21:57:43.012Z,17.19
2018-05-15T22:00:11.908Z,17.11
2018-05-15T22:02:40.028Z,17.29
2018-05-15T22:05:08.468Z,17.37
2018-05-15T22:07:36.575Z,17.50
2018-05-15T22:10:04.708Z,17.59
2018-05-15T22:12:44.452Z,17.40
2018-05-15T22:15:24.646Z,17.46
2018-05-15T22:18:04.597Z,17.37
2018-05-15T22:20:44.806Z,17.44
2018-05-15T22:23:12.247Z,17.27
2018-05-15T22:25:40.381Z,17.37
2018-05-15T22:28:08.480Z,17.23
2018-05-15T22:30:36.600Z,17.20
2018-05-15T22:33:04.729Z,17.08
2018-05-15T22:35:32.866Z,16.95
2018-05-15T22:38:00.949Z,16.95
2018-05-15T22:40:29.065Z,16.86
2018-05-15T22:42:57.205Z,16.85
2018-05-15T22:45:25.310Z,17.10
2018-05-15T22:47:53.423Z,16.87
2018-05-15T22:50:22.419Z,17.09
2018-05-15T22:52:50.537Z,17.02
2018-05-15T22:55:18.660Z,16.79
2018-05-15T22:57:46.782Z,16.78
2018-05-15T23:00:14.918Z,16.82
2018-05-15T23:02:43.026Z,17.01
2018-05-15T23:05:11.443Z,17.07
2018-05-15T23:07:39.546Z,16.81
2018-05-15T23:10:07.654Z,16.72
2018-05-15T23:12:35.763Z,16.75
2018-05-15T23:15:03.937Z,16.70
2018-05-15T23:17:32.792Z,16.77
2018-05-15T23:20:00.937Z,16.90
2018-05-15T23:22:41.105Z,16.91
2018-05-15T23:25:09.216Z,16.83
2018-05-15T23:27:37.580Z,17.02
2018-05-15T23:30:05.686Z,17.02
2018-05-15T23:32:34.804Z,17.08
2018-05-15T23:35:02.954Z,16.94
2018-05-15T23:37:31.273Z,16.60
2018-05-15T23:39:59.399Z,16.62
2018-05-15T23:42:27.502Z,16.71
2018-05-15T23:44:55.984Z,16.71
2018-05-15T23:47:24.176Z,16.90
2018-05-15T23:49:52.287Z,17.08
2018-05-15T23:52:20.404Z,16.97
2018-05-15T23:54:48.516Z,16.80
2018-05-15T23:57:16.851Z,16.85
2018-05-15T23:59:44.975Z,16.79
